Time;durP1;ratioP1;P1;durP2;ratioP2;P2;SDS_P1;SDS_P2;PMS_P1;PMS_P2;Temp;Humidity;BMP_temperature;BMP_pressure;BME280_temperature;BME280_humidity;BME280_pressure;Samples;Min_cycle;Max_cycle;Signal;HPM_P1;HPM_P2
2022/08/05 00:00:58;;;;;;;;;3.00;3.00;;;;;24.10;40.48;100998.47;5002362;28;45464;-59
2022/08/05 00:03:23;;;;;;;;;5.75;3.00;;;;;24.06;40.58;100985.38;5006436;28;47576;-59
2022/08/05 00:05:48;;;;;;;;;4.00;4.00;;;;;23.94;40.66;100957.53;5001079;28;45334;-60
2022/08/05 00:08:14;;;;;;;;;4.75;4.75;;;;;23.90;40.85;100951.50;5001124;28;45285;-60
2022/08/05 00:10:39;;;;;;;;;4.00;4.00;;;;;23.82;40.82;100967.22;5000641;28;45606;-60
2022/08/05 00:13:04;;;;;;;;;5.00;3.75;;;;;23.76;40.89;100991.78;5000940;28;46371;-60
2022/08/05 00:15:30;;;;;;;;;5.00;5.00;;;;;23.72;41.01;101009.03;4999685;28;45278;-60
2022/08/05 00:17:55;;;;;;;;;4.25;3.00;;;;;23.66;40.97;101054.09;5001028;28;45556;-59
2022/08/05 00:20:20;;;;;;;;;3.75;3.00;;;;;23.53;41.23;101091.56;5000953;28;45612;-59
2022/08/05 00:22:46;;;;;;;;;4.50;4.00;;;;;23.44;41.28;101124.31;5000750;28;45170;-58
2022/08/05 00:25:11;;;;;;;;;4.75;3.75;;;;;23.25;42.18;101105.84;5000350;28;45248;-58
2022/08/05 00:27:36;;;;;;;;;4.50;4.00;;;;;23.19;42.29;101128.53;5000227;28;45266;-59
2022/08/05 00:30:03;;;;;;;;;3.75;3.75;;;;;23.10;42.06;101163.03;5000776;28;45819;-59
2022/08/05 00:32:29;;;;;;;;;4.00;4.00;;;;;22.99;42.53;101163.66;5000493;28;46270;-59
2022/08/05 00:34:54;;;;;;;;;3.75;3.50;;;;;22.93;42.60;101140.81;5000618;28;45333;-58
2022/08/05 00:37:19;;;;;;;;;6.50;5.50;;;;;22.85;42.66;101143.06;5000260;28;45551;-59
2022/08/05 00:39:45;;;;;;;;;5.00;5.00;;;;;22.78;42.81;101099.72;5000566;28;45320;-59
2022/08/05 00:42:10;;;;;;;;;5.50;4.00;;;;;22.73;42.61;101148.19;5000157;28;46302;-59
2022/08/05 00:44:35;;;;;;;;;5.50;4.75;;;;;22.68;42.50;101171.72;5000581;28;45447;-59
2022/08/05 00:47:01;;;;;;;;;4.00;4.00;;;;;22.62;43.18;101174.75;5000543;28;45320;-58
2022/08/05 00:49:26;;;;;;;;;4.00;4.00;;;;;22.58;43.07;101172.31;5000504;28;45296;-58
2022/08/05 00:51:51;;;;;;;;;7.25;4.00;;;;;22.53;43.17;101135.13;5019351;28;49377;-58
2022/08/05 00:54:17;;;;;;;;;4.50;4.25;;;;;22.49;42.97;101128.19;5001836;28;47863;-58
2022/08/05 00:56:42;;;;;;;;;4.25;3.75;;;;;22.42;42.98;101113.47;5000361;28;45428;-58
2022/08/05 00:59:07;;;;;;;;;4.75;4.00;;;;;22.45;42.90;101126.66;5000330;28;45325;-58
2022/08/05 01:01:33;;;;;;;;;6.25;5.00;;;;;22.45;43.49;101095.41;5005965;28;46183;-58
2022/08/05 01:03:58;;;;;;;;;4.25;3.00;;;;;22.46;43.55;101141.78;5002274;28;45417;-58
2022/08/05 01:06:23;;;;;;;;;4.75;4.00;;;;;22.45;43.38;101134.69;5000498;28;45516;-58
2022/08/05 01:08:49;;;;;;;;;6.75;5.00;;;;;22.43;43.22;101109.81;4998837;28;45347;-58
2022/08/05 01:11:20;;;;;;;;;3.00;3.00;;;;;22.42;43.79;101106.28;4999904;28;46160;-59
2022/08/05 01:14:33;;;;;;;;;5.75;5.75;;;;;22.41;43.50;101067.06;5000195;28;45309;-58
2022/08/05 01:17:04;;;;;;;;;4.25;2.75;;;;;22.41;43.97;101051.00;4993069;28;45429;-58
2022/08/05 01:19:38;;;;;;;;;4.25;2.25;;;;;22.42;43.81;101148.28;5000145;28;45190;-58
2022/08/05 01:22:28;;;;;;;;;4.25;3.00;;;;;22.41;44.21;101101.88;4999869;28;45370;-58
2022/08/05 01:25:11;;;;;;;;;3.25;2.75;;;;;22.36;44.31;101107.50;5000053;28;45585;-59
2022/08/05 01:27:44;;;;;;;;;3.50;3.50;;;;;22.34;43.67;101127.25;4999857;28;45244;-59
2022/08/05 01:30:11;;;;;;;;;5.75;4.75;;;;;22.32;43.84;101142.53;4999842;28;45246;-59
2022/08/05 01:32:42;;;;;;;;;5.50;3.00;;;;;22.31;43.94;101120.25;4999674;28;46528;-59
2022/08/05 01:35:09;;;;;;;;;4.00;3.00;;;;;;;;4998826;28;45349;-59
2022/08/05 01:37:44;;;;;;;;;5.25;4.25;;;;;22.32;44.21;101047.03;5001300;28;45430;-58
2022/08/05 01:40:11;;;;;;;;;4.75;4.75;;;;;22.31;43.95;101042.63;5003544;28;45279;-58
2022/08/05 01:42:39;;;;;;;;;4.50;4.00;;;;;22.32;44.20;101049.72;5002836;28;45417;-59
2022/08/05 01:45:07;;;;;;;;;4.00;4.00;;;;;22.32;44.34;101040.81;5003380;28;45434;-58
2022/08/05 01:47:35;;;;;;;;;5.75;4.00;;;;;22.32;44.66;101087.19;5003146;28;45332;-59
2022/08/05 01:50:02;;;;;;;;;4.00;3.75;;;;;;;;5008120;28;45196;-59
2022/08/05 01:52:30;;;;;;;;;3.00;3.00;;;;;22.29;44.53;101108.78;5019367;28;45197;-59
2022/08/05 01:54:58;;;;;;;;;5.50;4.25;;;;;22.29;44.44;101106.13;5003219;28;45294;-59
2022/08/05 01:57:27;;;;;;;;;5.75;5.50;;;;;22.29;44.83;101110.59;5002909;28;45386;-59
2022/08/05 01:59:57;;;;;;;;;7.00;5.00;;;;;22.27;44.63;101081.25;5003052;28;45350;-59
2022/08/05 02:02:24;;;;;;;;;6.25;5.00;;;;;22.27;44.84;101108.00;5009550;28;45320;-59
2022/08/05 02:04:51;;;;;;;;;5.50;5.25;;;;;22.26;44.73;101102.75;5002989;28;45503;-59
2022/08/05 02:07:17;;;;;;;;;4.00;4.00;;;;;22.26;44.76;101095.56;5002885;28;45293;-59
2022/08/05 02:09:44;;;;;;;;;6.75;5.25;;;;;22.22;45.01;101070.78;5002804;28;45223;-59
2022/08/05 02:12:23;;;;;;;;;3.75;3.75;;;;;22.21;45.25;101098.53;5002563;28;47146;-59
2022/08/05 02:15:01;;;;;;;;;6.25;6.00;;;;;22.20;45.26;101098.59;5002722;28;45293;-59
2022/08/05 02:17:39;;;;;;;;;6.25;3.75;;;;;22.16;44.77;101110.44;5002956;28;45274;-59
2022/08/05 02:20:13;;;;;;;;;5.00;4.25;;;;;22.12;44.98;101091.00;5002749;28;45318;-59
2022/08/05 02:22:42;;;;;;;;;6.00;5.00;;;;;22.13;45.28;101094.56;5002585;28;45357;-59
2022/08/05 02:25:15;;;;;;;;;7.00;6.00;;;;;22.10;45.34;101124.16;5002433;28;45314;-59
2022/08/05 02:27:47;;;;;;;;;7.50;5.75;;;;;22.12;45.51;101124.94;5002486;28;45429;-59
2022/08/05 02:30:14;;;;;;;;;6.75;5.00;;;;;22.07;45.33;101122.53;5002536;28;45259;-59
2022/08/05 02:32:42;;;;;;;;;7.00;5.00;;;;;22.06;45.67;101142.19;5001011;28;46437;-59
2022/08/05 02:35:12;;;;;;;;;4.75;4.00;;;;;22.01;45.64;101145.16;5002539;28;45301;-58
2022/08/05 02:37:40;;;;;;;;;5.00;5.00;;;;;22.03;45.44;101123.66;5002552;28;45224;-58
2022/08/05 02:40:08;;;;;;;;;6.75;5.50;;;;;22.02;45.62;101106.72;5002409;28;45530;-58
2022/08/05 02:42:35;;;;;;;;;6.50;5.25;;;;;22.02;45.63;101079.13;5001938;28;45255;-58
2022/08/05 02:45:02;;;;;;;;;6.75;5.25;;;;;22.00;45.35;101089.03;5002354;28;45329;-59
2022/08/05 02:47:30;;;;;;;;;5.25;4.00;;;;;21.98;45.65;101085.59;5000933;28;45196;-58
2022/08/05 02:49:56;;;;;;;;;5.00;5.00;;;;;21.93;45.80;101045.72;5005501;28;45262;-58
2022/08/05 02:52:22;;;;;;;;;5.75;4.00;;;;;21.92;46.16;101055.56;5018600;28;45540;-58
2022/08/05 02:54:49;;;;;;;;;6.00;6.00;;;;;21.88;46.16;101070.06;5002304;28;45381;-58
2022/08/05 02:57:17;;;;;;;;;4.25;4.25;;;;;21.88;46.04;101053.16;5002066;28;45313;-58
2022/08/05 02:59:45;;;;;;;;;6.00;6.00;;;;;21.89;45.93;101061.09;5002121;28;45514;-58
2022/08/05 03:02:13;;;;;;;;;6.00;5.75;;;;;21.87;46.04;101056.78;5009370;28;47218;-58
2022/08/05 03:04:41;;;;;;;;;4.25;4.25;;;;;21.85;46.11;101072.06;5001993;28;45490;-58
2022/08/05 03:07:06;;;;;;;;;4.25;3.75;;;;;21.86;46.15;101092.50;5002143;28;45286;-58
2022/08/05 03:09:32;;;;;;;;;7.25;6.25;;;;;21.85;46.15;101109.50;5001910;28;45494;-58
2022/08/05 03:11:57;;;;;;;;;6.25;5.25;;;;;21.83;46.38;101109.56;5001726;28;45257;-58
2022/08/05 03:14:23;;;;;;;;;5.75;5.75;;;;;21.79;46.45;101108.03;5001964;28;45234;-58
2022/08/05 03:16:48;;;;;;;;;4.00;3.25;;;;;21.77;46.48;101112.59;5000554;28;45250;-58
2022/08/05 03:19:13;;;;;;;;;4.25;4.25;;;;;21.75;46.24;101101.13;5001835;28;45223;-58
2022/08/05 03:21:39;;;;;;;;;8.50;6.25;;;;;21.72;46.22;101101.28;5001878;28;45526;-58
2022/08/05 03:24:05;;;;;;;;;6.75;4.50;;;;;21.68;46.23;101099.75;5001760;28;45404;-59
2022/08/05 03:26:31;;;;;;;;;8.50;6.00;;;;;21.64;46.47;101099.03;5000303;28;45421;-59
2022/08/05 03:28:57;;;;;;;;;4.75;4.75;;;;;21.59;46.21;101091.25;5001737;28;45285;-59
2022/08/05 03:31:24;;;;;;;;;6.50;5.25;;;;;21.54;46.19;101105.81;5001423;28;45261;-59
2022/08/05 03:33:50;;;;;;;;;3.75;2.25;;;;;21.51;46.23;101114.88;5001863;28;45316;-58
2022/08/05 03:36:16;;;;;;;;;5.25;5.00;;;;;21.46;46.81;101105.34;5001587;28;45518;-58
2022/08/05 03:38:41;;;;;;;;;4.25;3.75;;;;;21.46;46.74;101116.06;5001652;28;45232;-58
2022/08/05 03:41:07;;;;;;;;;4.00;4.00;;;;;21.43;46.76;101106.38;5001083;28;46866;-58
2022/08/05 03:43:33;;;;;;;;;6.75;5.50;;;;;21.37;46.45;101107.59;5000448;28;45289;-59
2022/08/05 03:45:58;;;;;;;;;3.75;3.00;;;;;21.35;46.69;101122.00;5001387;28;45326;-58
2022/08/05 03:48:24;;;;;;;;;3.75;3.75;;;;;21.35;46.33;101124.66;5016860;28;45213;-58
2022/08/05 03:51:12;;;;;;;;;7.75;6.25;;;;;21.32;46.84;101128.38;5012497;28;46154;-58
2022/08/05 03:53:53;;;;;;;;;4.25;3.00;;;;;21.27;46.95;101125.06;5007411;28;45475;-59
2022/08/05 03:56:51;;;;;;;;;5.00;5.00;;;;;21.22;46.57;101119.09;5001138;28;45428;-58
2022/08/05 03:59:23;;;;;;;;;5.25;4.00;;;;;21.20;46.61;101126.34;4957602;28;45505;-58
2022/08/05 04:01:50;;;;;;;;;6.00;6.00;;;;;21.19;47.02;101120.13;5008452;28;46223;-58
2022/08/05 04:04:19;;;;;;;;;6.50;6.25;;;;;21.15;46.70;101101.69;5000921;28;45455;-58
2022/08/05 04:06:46;;;;;;;;;5.75;4.50;;;;;21.16;46.76;101084.69;5000992;28;45232;-58
2022/08/05 04:09:13;;;;;;;;;6.25;5.00;;;;;21.15;46.92;101096.34;5001195;28;45225;-58
2022/08/05 04:11:38;;;;;;;;;4.00;4.00;;;;;21.14;47.17;101103.47;5000543;28;46206;-58
2022/08/05 04:14:05;;;;;;;;;3.25;3.25;;;;;21.11;46.87;101099.16;5001128;28;45194;-58
2022/08/05 04:16:31;;;;;;;;;5.75;4.25;;;;;21.09;47.11;101111.75;5000943;28;45337;-58
2022/08/05 04:18:57;;;;;;;;;6.25;5.25;;;;;21.09;46.71;101116.22;5000857;28;45427;-58
2022/08/05 04:21:22;;;;;;;;;3.00;3.00;;;;;21.07;47.29;101107.44;5000701;28;45250;-58
2022/08/05 04:23:48;;;;;;;;;3.00;3.00;;;;;21.07;46.77;101105.59;5000934;28;45269;-58
2022/08/05 04:26:14;;;;;;;;;7.00;5.00;;;;;21.05;46.95;101102.13;5000577;28;45262;-58
2022/08/05 04:28:39;;;;;;;;;3.25;3.25;;;;;21.03;46.76;101117.41;5001101;28;45300;-58
2022/08/05 04:31:05;;;;;;;;;6.25;4.25;;;;;21.01;47.27;101110.41;5000375;28;46208;-58
2022/08/05 04:33:30;;;;;;;;;5.25;4.75;;;;;20.99;46.91;101113.16;5000876;28;45419;-58
2022/08/05 04:35:55;;;;;;;;;5.00;4.00;;;;;20.93;47.29;101102.81;4999462;28;45255;-58
2022/08/05 04:38:21;;;;;;;;;4.00;4.00;;;;;20.92;46.68;101096.59;5000786;28;45308;-58
2022/08/05 04:40:46;;;;;;;;;7.25;6.75;;;;;20.90;47.30;101094.94;5000041;28;46333;-57
2022/08/05 04:43:11;;;;;;;;;3.00;3.00;;;;;20.87;47.42;101100.47;5000633;28;45298;-57
2022/08/05 04:45:37;;;;;;;;;5.00;3.25;;;;;20.84;47.41;101117.50;5000678;28;45282;-57
2022/08/05 04:48:07;;;;;;;;;5.50;5.50;;;;;20.83;47.29;101113.09;5000480;28;45225;-57
2022/08/05 04:50:41;;;;;;;;;7.00;6.50;;;;;20.83;47.24;101122.91;5009521;28;46182;-57
2022/08/05 04:53:08;;;;;;;;;6.00;5.25;;;;;20.82;47.52;101122.03;5010180;28;45333;-58
2022/08/05 04:55:34;;;;;;;;;5.25;5.00;;;;;20.80;47.57;101129.25;5000260;28;45416;-58
2022/08/05 04:58:00;;;;;;;;;6.00;4.25;;;;;20.76;47.19;101123.22;5015570;28;45608;-58
2022/08/05 05:00:25;;;;;;;;;4.75;4.75;;;;;20.73;47.08;101126.06;5000066;28;45354;-58
2022/08/05 05:02:51;;;;;;;;;6.25;5.00;;;;;20.73;47.27;101125.19;5007698;28;45263;-58
2022/08/05 05:05:16;;;;;;;;;6.75;5.00;;;;;20.67;47.92;101123.66;5000324;28;45297;-58
2022/08/05 05:07:42;;;;;;;;;7.00;5.50;;;;;20.67;47.70;101130.81;5015648;28;45666;-58
2022/08/05 05:10:07;;;;;;;;;5.00;5.00;;;;;20.63;47.46;101136.28;4999938;28;45222;-57
2022/08/05 05:12:33;;;;;;;;;8.00;5.50;;;;;20.60;47.62;101144.47;4999445;28;45159;-57
2022/08/05 05:14:58;;;;;;;;;6.00;5.00;;;;;20.60;47.42;101147.13;5015495;28;45230;-58
2022/08/05 05:17:24;;;;;;;;;5.50;5.50;;;;;20.60;47.89;101144.47;5000160;28;45433;-57
2022/08/05 05:19:51;;;;;;;;;4.50;3.00;;;;;20.56;47.63;101155.38;5015396;28;45378;-58
2022/08/05 05:22:17;;;;;;;;;8.00;6.75;;;;;20.55;47.85;101146.50;5000081;28;45333;-57
2022/08/05 05:24:42;;;;;;;;;5.75;5.75;;;;;20.51;47.78;101158.25;5000048;28;45393;-57
2022/08/05 05:27:08;;;;;;;;;8.25;7.25;;;;;20.52;47.88;101157.31;4999855;28;45612;-58
2022/08/05 05:29:33;;;;;;;;;6.75;6.00;;;;;20.51;47.78;101155.59;4999773;28;46017;-57
2022/08/05 05:31:59;;;;;;;;;4.75;4.00;;;;;20.52;48.07;101161.81;4999790;28;45249;-58
2022/08/05 05:34:24;;;;;;;;;9.00;6.25;;;;;20.51;48.28;101170.75;5000278;28;45339;-58
2022/08/05 05:36:49;;;;;;;;;6.25;4.75;;;;;20.51;48.04;101166.25;4999948;28;45346;-58
2022/08/05 05:39:15;;;;;;;;;6.00;5.25;;;;;20.51;47.84;101174.28;4999686;28;46229;-58
2022/08/05 05:41:40;;;;;;;;;7.00;7.00;;;;;20.52;48.52;101175.16;4999646;28;45276;-58
2022/08/05 05:44:06;;;;;;;;;6.25;5.00;;;;;20.54;48.00;101176.81;5015039;28;45343;-58
2022/08/05 05:46:31;;;;;;;;;5.00;5.00;;;;;20.55;48.25;101175.88;4999919;28;45242;-59
2022/08/05 05:48:57;;;;;;;;;6.25;5.25;;;;;20.56;48.40;101180.25;4999533;28;45235;-58
2022/08/05 05:51:24;;;;;;;;;8.75;6.00;;;;;20.56;48.24;101185.59;5015450;28;45261;-58
2022/08/05 05:53:52;;;;;;;;;7.25;7.25;;;;;20.56;48.02;101188.25;5004880;28;45382;-58
2022/08/05 05:56:19;;;;;;;;;5.00;5.00;;;;;20.58;48.10;101193.53;5014615;28;45438;-58
2022/08/05 05:58:46;;;;;;;;;81.50;72.75;;;;;20.59;48.19;101196.13;5014405;28;48365;-58
2022/08/05 06:01:13;;;;;;;;;95.75;91.75;;;;;20.60;48.13;101205.00;5000986;28;45268;-58
2022/08/05 06:03:41;;;;;;;;;439.75;414.00;;;;;20.62;48.55;101206.66;5002206;28;45357;-58
2022/08/05 06:06:07;;;;;;;;;10.50;9.75;;;;;20.63;48.65;101208.38;4998053;28;45949;-57
2022/08/05 06:08:33;;;;;;;;;405.25;376.75;;;;;20.64;48.57;101209.25;4998811;28;45349;-57
2022/08/05 06:10:59;;;;;;;;;141.25;133.00;;;;;20.66;48.28;101203.84;4999044;28;45373;-58
2022/08/05 06:13:24;;;;;;;;;9.25;8.00;;;;;20.64;48.35;101206.59;4999519;28;45254;-58
2022/08/05 06:15:50;;;;;;;;;8.00;8.00;;;;;20.68;48.24;101210.84;4998126;28;45248;-59
2022/08/05 06:18:15;;;;;;;;;7.00;7.00;;;;;20.71;48.32;101213.38;4999161;28;46380;-58
2022/08/05 06:20:41;;;;;;;;;10.50;9.75;;;;;20.72;48.47;101216.94;5014506;28;45440;-58
2022/08/05 06:23:06;;;;;;;;;10.75;7.75;;;;;20.74;48.62;101213.25;5014493;28;45322;-59
2022/08/05 06:25:31;;;;;;;;;7.00;5.75;;;;;20.76;48.35;101221.16;5001809;28;45182;-59
2022/08/05 06:27:57;;;;;;;;;9.00;9.00;;;;;20.74;48.09;101221.25;5000788;28;46381;-59
2022/08/05 06:30:25;;;;;;;;;8.00;6.00;;;;;20.78;48.55;101230.81;5002458;28;48289;-59
2022/08/05 06:32:51;;;;;;;;;11.50;7.00;;;;;20.81;48.07;101229.81;5002553;28;45425;-59
2022/08/05 06:35:17;;;;;;;;;4.50;4.00;;;;;20.81;47.94;101232.47;5001197;28;45794;-59
2022/08/05 06:37:42;;;;;;;;;10.25;7.50;;;;;20.81;47.86;101237.81;5002340;28;46363;-58
2022/08/05 06:40:08;;;;;;;;;7.25;7.00;;;;;20.82;48.54;101244.00;5002380;28;45309;-59
2022/08/05 06:42:34;;;;;;;;;7.00;6.00;;;;;20.83;48.09;101238.63;5002452;28;45270;-59
2022/08/05 06:44:59;;;;;;;;;7.75;5.75;;;;;20.87;48.36;101247.34;5002416;28;45357;-60
2022/08/05 06:47:24;;;;;;;;;6.25;5.00;;;;;20.86;48.36;101241.13;5000833;28;47422;-59
2022/08/05 06:49:50;;;;;;;;;7.00;5.00;;;;;20.86;48.15;101234.94;5005691;28;45374;-59
2022/08/05 06:52:15;;;;;;;;;8.25;5.00;;;;;20.90;48.28;101241.84;5019235;28;45321;-59
2022/08/05 06:54:40;;;;;;;;;6.50;5.75;;;;;20.92;47.85;101235.47;5002146;28;47084;-59
2022/08/05 06:57:06;;;;;;;;;7.75;5.75;;;;;20.87;48.29;101228.66;5000438;28;45487;-59
2022/08/05 06:59:31;;;;;;;;;6.00;6.00;;;;;20.99;48.14;101236.03;5002355;28;45195;-59
2022/08/05 07:01:56;;;;;;;;;7.00;5.50;;;;;21.01;48.34;101236.81;5009704;28;45159;-59
2022/08/05 07:04:22;;;;;;;;;10.00;6.50;;;;;21.02;47.61;101235.88;5001998;28;45355;-59
2022/08/05 07:06:47;;;;;;;;;9.75;8.50;;;;;21.03;47.76;101242.09;5001835;28;46095;-59
2022/08/05 07:09:12;;;;;;;;;6.25;6.25;;;;;21.03;47.69;101237.63;5001908;28;48113;-59
2022/08/05 07:11:37;;;;;;;;;7.50;6.25;;;;;21.02;47.71;101243.91;5001855;28;45160;-60
2022/08/05 07:16:51;;;;;;;;;7.00;6.50;;;;;21.07;47.84;101254.38;5001762;28;45303;-59
2022/08/05 07:19:19;;;;;;;;;7.50;6.00;;;;;21.09;47.63;101258.69;5001773;28;45409;-59
2022/08/05 07:21:46;;;;;;;;;6.50;5.50;;;;;21.10;47.70;101255.06;5001795;28;45175;-59
2022/08/05 07:24:12;;;;;;;;;8.50;7.25;;;;;21.14;47.75;101253.09;5001876;28;45230;-59
2022/08/05 07:26:37;;;;;;;;;11.50;11.50;;;;;21.18;47.76;101262.72;5001224;28;46070;-59
2022/08/05 07:29:03;;;;;;;;;9.00;7.25;;;;;21.20;47.63;101263.47;5001859;28;45216;-59
2022/08/05 07:31:28;;;;;;;;;9.25;6.25;;;;;21.21;47.45;101261.69;5000412;28;45466;-60
2022/08/05 07:33:54;;;;;;;;;10.00;8.75;;;;;21.22;47.72;101264.28;5000625;28;45606;-60
2022/08/05 07:36:19;;;;;;;;;11.50;8.00;;;;;21.26;47.62;101273.84;4999414;28;45325;-60
2022/08/05 07:38:44;;;;;;;;;8.00;6.25;;;;;21.30;47.66;101277.25;5001714;28;45317;-60
2022/08/05 07:41:20;;;;;;;;;6.00;6.00;;;;;21.34;47.94;101285.97;5016476;28;45451;-59
2022/08/05 07:43:46;;;;;;;;;11.00;9.50;;;;;21.37;47.67;101289.34;5001498;28;45254;-59
2022/08/05 07:46:11;;;;;;;;;9.50;8.50;;;;;21.40;47.39;101283.84;5001023;28;46915;-59
2022/08/05 07:48:36;;;;;;;;;8.25;7.25;;;;;21.44;47.37;101287.22;5001319;28;45376;-59
2022/08/05 07:51:02;;;;;;;;;6.25;5.00;;;;;21.46;47.46;101282.69;5014366;28;45307;-59
2022/08/05 07:53:27;;;;;;;;;9.00;7.00;;;;;21.52;47.58;101285.03;5009600;28;45319;-59
2022/08/05 07:55:52;;;;;;;;;8.25;7.00;;;;;21.57;47.55;101287.47;5000749;28;45265;-60
2022/08/05 07:58:18;;;;;;;;;6.75;6.50;;;;;21.57;47.63;101287.47;5001434;28;45345;-60
2022/08/05 08:00:43;;;;;;;;;7.75;7.50;;;;;21.64;47.59;101291.56;5001109;28;45672;-60
2022/08/05 08:03:12;;;;;;;;;7.50;7.50;;;;;21.68;47.15;101295.81;5008924;28;45506;-60
2022/08/05 08:05:42;;;;;;;;;7.25;7.00;;;;;21.74;47.42;101294.63;5016174;28;47318;-60
2022/08/05 08:08:08;;;;;;;;;7.50;7.50;;;;;21.75;47.15;101293.69;5001042;28;45340;-60
2022/08/05 08:10:33;;;;;;;;;7.00;7.00;;;;;21.81;47.47;101301.41;5000596;28;45353;-60
2022/08/05 08:12:58;;;;;;;;;7.75;6.00;;;;;21.84;46.56;101306.56;5000986;28;45307;-59
2022/08/05 08:15:24;;;;;;;;;9.75;7.75;;;;;21.87;46.80;101309.09;5000753;28;49067;-60
2022/08/05 08:17:49;;;;;;;;;7.50;7.50;;;;;21.90;47.17;101305.41;5016223;28;45826;-60
2022/08/05 08:20:14;;;;;;;;;7.75;5.25;;;;;21.96;46.84;101313.09;5000900;28;46056;-60
2022/08/05 08:22:40;;;;;;;;;8.00;7.00;;;;;22.01;47.01;101313.72;5001205;28;45464;-60
2022/08/05 08:25:06;;;;;;;;;9.50;7.00;;;;;22.06;47.02;101311.66;5000349;28;45908;-60
2022/08/05 08:27:31;;;;;;;;;9.00;9.00;;;;;22.11;46.71;101307.88;5000807;28;45394;-60
2022/08/05 08:29:57;;;;;;;;;5.25;5.25;;;;;22.15;46.46;101312.97;5000990;28;45374;-60
2022/08/05 08:32:23;;;;;;;;;10.50;7.50;;;;;22.24;47.05;101314.28;5000650;28;45212;-60
2022/08/05 08:34:48;;;;;;;;;7.00;5.75;;;;;22.29;46.49;101320.25;5000593;28;45334;-60
2022/08/05 08:37:13;;;;;;;;;8.00;8.00;;;;;22.34;46.63;101323.53;5000705;28;45274;-60
2022/08/05 08:39:39;;;;;;;;;7.75;6.25;;;;;22.42;46.11;101324.97;5000717;28;45868;-60
2022/08/05 08:42:07;;;;;;;;;10.00;8.00;;;;;22.43;46.34;101324.88;5000300;28;45522;-60
2022/08/05 08:44:33;;;;;;;;;9.25;7.75;;;;;22.46;46.77;101331.88;5000529;28;46596;-60
2022/08/05 08:46:59;;;;;;;;;8.50;7.50;;;;;22.54;46.32;101340.34;4999413;28;45315;-60
2022/08/05 08:49:25;;;;;;;;;6.50;6.50;;;;;22.59;46.48;101332.94;5000652;28;45388;-60
2022/08/05 08:52:00;;;;;;;;;6.75;5.50;;;;;22.67;46.61;101340.56;5012010;28;45453;-60
2022/08/05 08:54:26;;;;;;;;;8.50;7.75;;;;;22.65;46.41;101331.72;5000485;28;46405;-60
2022/08/05 08:56:51;;;;;;;;;8.00;6.00;;;;;22.79;46.15;101347.91;5000093;28;45250;-60
2022/08/05 08:59:18;;;;;;;;;6.75;6.75;;;;;22.86;46.15;101341.22;5000345;28;45856;-60
2022/08/05 09:01:45;;;;;;;;;7.25;6.00;;;;;22.93;46.26;101343.56;5007668;28;45617;-60
2022/08/05 09:04:12;;;;;;;;;6.75;6.75;;;;;22.97;45.52;101347.81;5000478;28;46119;-60
2022/08/05 09:06:37;;;;;;;;;11.50;8.50;;;;;23.07;45.57;101351.69;5000353;28;45432;-60
2022/08/05 09:09:03;;;;;;;;;7.50;6.00;;;;;23.14;45.64;101358.41;5000265;28;45267;-60
2022/08/05 09:11:29;;;;;;;;;6.75;5.50;;;;;23.17;45.41;101355.59;4998675;28;45576;-60
2022/08/05 09:13:55;;;;;;;;;5.00;5.00;;;;;23.25;45.59;101357.81;5000171;28;47126;-60
2022/08/05 09:16:21;;;;;;;;;8.25;6.50;;;;;23.32;45.29;101358.31;4999974;28;45254;-60
2022/08/05 09:18:47;;;;;;;;;4.50;4.25;;;;;23.39;45.10;101356.16;5000219;28;45225;-60
2022/08/05 09:21:13;;;;;;;;;6.25;5.25;;;;;23.45;45.11;101353.13;5000353;28;45444;-60
2022/08/05 09:23:38;;;;;;;;;7.50;5.75;;;;;23.48;44.66;101348.44;4999851;28;46238;-60
2022/08/05 09:26:09;;;;;;;;;5.50;5.25;;;;;23.59;44.78;101355.00;4999691;28;45402;-60
2022/08/05 09:28:37;;;;;;;;;6.00;4.25;;;;;23.67;44.44;101363.44;5000296;28;45506;-60
2022/08/05 09:31:11;;;;;;;;;4.25;4.25;;;;;23.74;44.45;101367.47;4999792;28;45288;-60
2022/08/05 09:33:52;;;;;;;;;5.00;5.00;;;;;23.82;44.58;101356.28;4999944;28;45183;-60
2022/08/05 09:36:18;;;;;;;;;4.50;4.50;;;;;23.89;44.62;101354.97;4999748;28;45337;-61
2022/08/05 09:39:00;;;;;;;;;6.50;4.50;;;;;23.98;44.19;101353.56;5000149;28;45452;-60
2022/08/05 09:41:26;;;;;;;;;6.00;6.00;;;;;24.07;44.02;101366.41;4999393;28;45463;-60
2022/08/05 09:43:51;;;;;;;;;5.50;5.25;;;;;24.15;43.89;101372.19;4999739;28;45987;-61
2022/08/05 09:46:32;;;;;;;;;8.25;7.25;;;;;24.23;43.64;101363.66;4999635;28;45338;-60
2022/08/05 09:48:59;;;;;;;;;9.00;9.00;;;;;24.33;43.75;101372.00;4999882;28;45169;-60
2022/08/05 09:51:38;;;;;;;;;14.00;12.00;;;;;24.41;43.66;101364.31;5015828;28;46473;-61
2022/08/05 09:54:07;;;;;;;;;8.75;8.25;;;;;24.51;43.53;101359.22;5002797;28;45507;-61
2022/08/05 09:56:36;;;;;;;;;8.50;7.75;;;;;24.60;43.32;101364.03;4999576;28;45251;-60
2022/08/05 09:59:07;;;;;;;;;6.50;6.00;;;;;24.70;43.59;101368.84;5001643;28;45278;-60
2022/08/05 10:01:35;;;;;;;;;10.75;10.00;;;;;24.80;43.14;101370.84;5008844;28;45433;-60
2022/08/05 10:04:03;;;;;;;;;7.25;6.75;;;;;24.91;43.61;101369.28;5004197;28;47163;-60
2022/08/05 10:06:29;;;;;;;;;8.50;6.25;;;;;25.02;43.17;101384.69;5002837;28;45445;-60
2022/08/05 10:09:08;;;;;;;;;8.00;8.00;;;;;25.12;42.72;101367.88;5002977;28;45241;-60
2022/08/05 10:11:33;;;;;;;;;8.50;8.50;;;;;25.22;42.70;101365.44;5002377;28;45399;-60
2022/08/05 10:13:58;;;;;;;;;13.00;11.00;;;;;25.33;42.94;101363.84;5002683;28;46181;-60
2022/08/05 10:16:35;;;;;;;;;11.00;9.25;;;;;25.44;42.75;101374.78;5002795;28;45235;-60
2022/08/05 10:19:01;;;;;;;;;6.50;6.50;;;;;25.54;42.33;101369.66;5003038;28;45317;-60
2022/08/05 10:21:27;;;;;;;;;8.50;8.50;;;;;25.69;42.71;101373.13;5002638;28;45262;-60
2022/08/05 10:23:53;;;;;;;;;11.50;10.75;;;;;25.79;42.18;101375.06;5002033;28;45468;-61
2022/08/05 10:26:19;;;;;;;;;12.00;11.00;;;;;25.91;41.99;101365.31;5017617;28;45308;-60
2022/08/05 10:28:45;;;;;;;;;13.00;11.25;;;;;26.11;42.32;101373.84;5001478;28;45322;-61
2022/08/05 10:31:12;;;;;;;;;11.75;10.25;;;;;26.27;41.94;101376.31;5002374;28;45250;-61
2022/08/05 10:33:38;;;;;;;;;3.75;3.75;;;;;26.42;42.11;101374.38;5002415;28;45297;-61
2022/08/05 10:36:04;;;;;;;;;10.25;9.25;;;;;26.63;42.43;101374.66;5002380;28;45223;-61
2022/08/05 10:38:31;;;;;;;;;8.75;7.50;;;;;26.81;41.62;101377.03;5002619;28;45215;-61
2022/08/05 10:41:21;;;;;;;;;8.00;8.00;;;;;27.03;41.87;101365.50;5002155;28;45399;-61
2022/08/05 10:44:00;;;;;;;;;9.75;9.75;;;;;27.24;41.88;101377.41;5002405;28;45175;-61
2022/08/05 10:46:49;;;;;;;;;9.25;9.25;;;;;27.59;42.30;101391.06;5002408;28;45463;-61
2022/08/05 10:49:16;;;;;;;;;8.75;8.75;;;;;27.85;41.82;101387.22;5002299;28;45202;-61
2022/08/05 10:51:49;;;;;;;;;9.75;8.50;;;;;28.05;41.36;101385.69;5020574;28;45237;-61
2022/08/05 10:54:15;;;;;;;;;9.00;8.00;;;;;28.26;41.36;101378.72;5004048;28;46650;-61
2022/08/05 10:56:47;;;;;;;;;9.75;8.75;;;;;28.58;41.81;101392.34;5001891;28;45246;-61
2022/08/05 10:59:27;;;;;;;;;11.00;9.25;;;;;29.00;41.67;101391.69;5002343;28;45410;-59
2022/08/05 11:02:10;;;;;;;;;10.75;9.00;;;;;29.45;41.14;101388.88;5009836;28;45290;-61
2022/08/05 11:04:46;;;;;;;;;7.75;6.50;;;;;29.90;40.86;101386.94;4984330;28;47239;-59
2022/08/05 11:07:17;;;;;;;;;10.75;8.25;;;;;30.41;40.99;101402.34;5002001;28;45202;-58
2022/08/05 11:09:51;;;;;;;;;7.00;7.00;;;;;30.98;40.78;101406.41;5001350;28;45273;-58
2022/08/05 11:12:22;;;;;;;;;7.50;7.00;;;;;31.55;40.43;101401.22;5000657;28;45675;-58
2022/08/05 11:15:03;;;;;;;;;8.25;6.75;;;;;32.09;40.67;101412.47;5001791;28;46388;-59
2022/08/05 11:17:31;;;;;;;;;9.50;6.75;;;;;32.62;40.09;101408.28;5000561;28;45338;-59
2022/08/05 11:19:58;;;;;;;;;7.50;5.00;;;;;33.06;39.17;101413.06;5001876;28;45178;-60
2022/08/05 11:22:47;;;;;;;;;7.00;7.00;;;;;33.50;38.86;101412.34;5001839;28;45171;-59
2022/08/05 11:25:34;;;;;;;;;8.25;7.25;;;;;33.95;38.41;101411.38;5001268;28;45396;-60
2022/08/05 11:28:08;;;;;;;;;8.25;8.00;;;;;34.38;38.01;101416.94;5000244;28;45355;-60
2022/08/05 11:30:55;;;;;;;;;6.00;6.00;;;;;34.77;37.25;101413.69;5001537;28;45283;-60